sensor_id;sensor_type;location;lat;lon;timestamp;temperature;humidity
40670;DHT22;26355;45.528;9.234;2022-08-23T00:01:26;28.20;88.60
40670;DHT22;26355;45.528;9.234;2022-08-23T00:03:54;28.20;89.10
40670;DHT22;26355;45.528;9.234;2022-08-23T00:06:21;28.20;88.60
40670;DHT22;26355;45.528;9.234;2022-08-23T00:08:50;28.20;88.60
40670;DHT22;26355;45.528;9.234;2022-08-23T00:11:38;28.10;88.70
40670;DHT22;26355;45.528;9.234;2022-08-23T00:14:35;28.10;89.00
40670;DHT22;26355;45.528;9.234;2022-08-23T00:17:01;28.00;89.10
40670;DHT22;26355;45.528;9.234;2022-08-23T00:19:27;27.90;89.30
40670;DHT22;26355;45.528;9.234;2022-08-23T00:21:54;27.90;88.90
40670;DHT22;26355;45.528;9.234;2022-08-23T00:24:21;27.90;89.20
40670;DHT22;26355;45.528;9.234;2022-08-23T00:29:18;27.90;89.30
40670;DHT22;26355;45.528;9.234;2022-08-23T00:31:45;27.80;89.40
40670;DHT22;26355;45.528;9.234;2022-08-23T00:34:11;27.80;89.50
40670;DHT22;26355;45.528;9.234;2022-08-23T00:36:37;27.80;89.70
40670;DHT22;26355;45.528;9.234;2022-08-23T00:39:04;27.80;89.70
40670;DHT22;26355;45.528;9.234;2022-08-23T00:41:30;27.80;89.70
40670;DHT22;26355;45.528;9.234;2022-08-23T00:43:56;27.80;89.60
40670;DHT22;26355;45.528;9.234;2022-08-23T00:46:46;27.80;89.60
40670;DHT22;26355;45.528;9.234;2022-08-23T00:49:50;27.80;89.70
40670;DHT22;26355;45.528;9.234;2022-08-23T00:52:26;27.60;90.00
40670;DHT22;26355;45.528;9.234;2022-08-23T00:54:55;27.60;90.40
40670;DHT22;26355;45.528;9.234;2022-08-23T00:57:22;27.60;90.30
40670;DHT22;26355;45.528;9.234;2022-08-23T00:59:48;27.60;90.30
40670;DHT22;26355;45.528;9.234;2022-08-23T01:02:14;27.50;90.30
40670;DHT22;26355;45.528;9.234;2022-08-23T01:04:48;27.50;90.30
40670;DHT22;26355;45.528;9.234;2022-08-23T01:10:06;27.40;90.70
40670;DHT22;26355;45.528;9.234;2022-08-23T01:12:47;27.30;90.80
40670;DHT22;26355;45.528;9.234;2022-08-23T01:15:34;27.40;90.90
40670;DHT22;26355;45.528;9.234;2022-08-23T01:18:05;27.30;90.90
40670;DHT22;26355;45.528;9.234;2022-08-23T01:20:54;27.30;90.70
40670;DHT22;26355;45.528;9.234;2022-08-23T01:23:30;27.30;91.00
40670;DHT22;26355;45.528;9.234;2022-08-23T01:25:58;27.40;90.90
40670;DHT22;26355;45.528;9.234;2022-08-23T01:28:25;27.30;90.80
40670;DHT22;26355;45.528;9.234;2022-08-23T01:30:50;27.30;90.90
40670;DHT22;26355;45.528;9.234;2022-08-23T01:33:17;27.30;91.00
40670;DHT22;26355;45.528;9.234;2022-08-23T01:35:47;27.20;91.00
40670;DHT22;26355;45.528;9.234;2022-08-23T01:38:14;27.20;91.00
40670;DHT22;26355;45.528;9.234;2022-08-23T01:40:40;27.20;91.10
40670;DHT22;26355;45.528;9.234;2022-08-23T01:43:08;27.20;91.20
40670;DHT22;26355;45.528;9.234;2022-08-23T01:45:34;27.20;91.40
40670;DHT22;26355;45.528;9.234;2022-08-23T01:48:00;27.20;91.60
40670;DHT22;26355;45.528;9.234;2022-08-23T01:50:26;27.20;91.30
40670;DHT22;26355;45.528;9.234;2022-08-23T01:52:52;27.30;91.60
40670;DHT22;26355;45.528;9.234;2022-08-23T01:55:19;27.30;91.30
40670;DHT22;26355;45.528;9.234;2022-08-23T01:57:48;27.30;91.50
40670;DHT22;26355;45.528;9.234;2022-08-23T02:00:15;27.30;91.80
40670;DHT22;26355;45.528;9.234;2022-08-23T02:02:41;27.20;92.00
40670;DHT22;26355;45.528;9.234;2022-08-23T02:05:07;27.10;92.00
40670;DHT22;26355;45.528;9.234;2022-08-23T02:07:34;27.10;92.10
40670;DHT22;26355;45.528;9.234;2022-08-23T02:09:59;27.00;92.10
40670;DHT22;26355;45.528;9.234;2022-08-23T02:12:25;27.00;92.10
40670;DHT22;26355;45.528;9.234;2022-08-23T02:14:51;27.00;92.10
40670;DHT22;26355;45.528;9.234;2022-08-23T02:17:17;27.00;92.20
40670;DHT22;26355;45.528;9.234;2022-08-23T02:19:43;27.00;92.20
40670;DHT22;26355;45.528;9.234;2022-08-23T02:22:10;27.00;92.30
40670;DHT22;26355;45.528;9.234;2022-08-23T02:24:40;27.00;92.10
40670;DHT22;26355;45.528;9.234;2022-08-23T02:27:06;27.00;92.00
40670;DHT22;26355;45.528;9.234;2022-08-23T02:29:32;27.00;92.10
40670;DHT22;26355;45.528;9.234;2022-08-23T02:31:59;27.00;92.10
40670;DHT22;26355;45.528;9.234;2022-08-23T02:34:26;27.00;92.20
40670;DHT22;26355;45.528;9.234;2022-08-23T02:36:52;26.90;92.20
40670;DHT22;26355;45.528;9.234;2022-08-23T02:39:19;26.90;92.50
40670;DHT22;26355;45.528;9.234;2022-08-23T02:41:45;26.90;92.50
40670;DHT22;26355;45.528;9.234;2022-08-23T02:44:12;26.90;92.50
40670;DHT22;26355;45.528;9.234;2022-08-23T02:46:38;26.90;92.80
40670;DHT22;26355;45.528;9.234;2022-08-23T02:49:04;26.90;92.60
40670;DHT22;26355;45.528;9.234;2022-08-23T02:51:30;26.90;92.70
40670;DHT22;26355;45.528;9.234;2022-08-23T02:53:56;26.90;92.70
40670;DHT22;26355;45.528;9.234;2022-08-23T02:56:22;26.90;92.70
40670;DHT22;26355;45.528;9.234;2022-08-23T02:58:49;26.80;92.80
40670;DHT22;26355;45.528;9.234;2022-08-23T03:01:20;26.80;93.00
40670;DHT22;26355;45.528;9.234;2022-08-23T03:03:46;26.70;93.50
40670;DHT22;26355;45.528;9.234;2022-08-23T03:06:13;26.70;93.50
40670;DHT22;26355;45.528;9.234;2022-08-23T03:08:39;26.70;93.60
40670;DHT22;26355;45.528;9.234;2022-08-23T03:11:11;26.60;93.80
40670;DHT22;26355;45.528;9.234;2022-08-23T03:13:37;26.60;93.50
40670;DHT22;26355;45.528;9.234;2022-08-23T03:16:04;26.70;93.40
40670;DHT22;26355;45.528;9.234;2022-08-23T03:18:29;26.70;93.30
40670;DHT22;26355;45.528;9.234;2022-08-23T03:20:55;26.60;93.40
40670;DHT22;26355;45.528;9.234;2022-08-23T03:23:21;26.60;93.60
40670;DHT22;26355;45.528;9.234;2022-08-23T03:25:46;26.50;93.70
40670;DHT22;26355;45.528;9.234;2022-08-23T03:28:12;26.50;94.00
40670;DHT22;26355;45.528;9.234;2022-08-23T03:30:38;26.50;94.00
40670;DHT22;26355;45.528;9.234;2022-08-23T03:33:03;26.50;94.00
40670;DHT22;26355;45.528;9.234;2022-08-23T03:35:29;26.50;94.00
40670;DHT22;26355;45.528;9.234;2022-08-23T03:37:55;26.50;94.10
40670;DHT22;26355;45.528;9.234;2022-08-23T03:40:21;26.50;94.10
40670;DHT22;26355;45.528;9.234;2022-08-23T03:42:48;26.50;94.20
40670;DHT22;26355;45.528;9.234;2022-08-23T03:45:14;26.40;94.50
40670;DHT22;26355;45.528;9.234;2022-08-23T03:47:40;26.40;94.70
40670;DHT22;26355;45.528;9.234;2022-08-23T03:50:06;26.30;94.70
40670;DHT22;26355;45.528;9.234;2022-08-23T03:52:32;26.40;94.80
40670;DHT22;26355;45.528;9.234;2022-08-23T03:54:58;26.40;94.70
40670;DHT22;26355;45.528;9.234;2022-08-23T03:57:23;26.40;94.80
40670;DHT22;26355;45.528;9.234;2022-08-23T03:59:49;26.50;94.80
40670;DHT22;26355;45.528;9.234;2022-08-23T04:02:15;26.40;94.80
40670;DHT22;26355;45.528;9.234;2022-08-23T04:04:41;26.40;95.00
40670;DHT22;26355;45.528;9.234;2022-08-23T04:07:07;26.40;95.10
40670;DHT22;26355;45.528;9.234;2022-08-23T04:09:33;26.30;95.30
40670;DHT22;26355;45.528;9.234;2022-08-23T04:11:59;26.20;95.60
40670;DHT22;26355;45.528;9.234;2022-08-23T04:14:24;26.20;95.70
40670;DHT22;26355;45.528;9.234;2022-08-23T04:16:51;26.20;95.80
40670;DHT22;26355;45.528;9.234;2022-08-23T04:19:17;26.20;95.80
40670;DHT22;26355;45.528;9.234;2022-08-23T04:21:47;26.20;96.00
40670;DHT22;26355;45.528;9.234;2022-08-23T04:24:14;26.20;96.10
40670;DHT22;26355;45.528;9.234;2022-08-23T04:26:41;26.10;96.10
40670;DHT22;26355;45.528;9.234;2022-08-23T04:29:07;26.10;96.10
40670;DHT22;26355;45.528;9.234;2022-08-23T04:31:33;26.10;96.10
40670;DHT22;26355;45.528;9.234;2022-08-23T04:34:00;26.00;96.20
40670;DHT22;26355;45.528;9.234;2022-08-23T04:36:37;26.00;96.20
40670;DHT22;26355;45.528;9.234;2022-08-23T04:39:03;26.00;96.50
40670;DHT22;26355;45.528;9.234;2022-08-23T04:41:28;26.00;96.60
40670;DHT22;26355;45.528;9.234;2022-08-23T04:44:13;26.10;96.30
40670;DHT22;26355;45.528;9.234;2022-08-23T04:46:40;26.00;96.50
40670;DHT22;26355;45.528;9.234;2022-08-23T04:49:08;26.00;96.70
40670;DHT22;26355;45.528;9.234;2022-08-23T04:51:34;26.00;96.80
40670;DHT22;26355;45.528;9.234;2022-08-23T04:54:00;25.90;96.90
40670;DHT22;26355;45.528;9.234;2022-08-23T04:56:25;26.00;97.00
40670;DHT22;26355;45.528;9.234;2022-08-23T04:58:51;26.00;96.90
40670;DHT22;26355;45.528;9.234;2022-08-23T05:01:17;26.00;96.80
40670;DHT22;26355;45.528;9.234;2022-08-23T05:03:43;26.10;96.80
40670;DHT22;26355;45.528;9.234;2022-08-23T05:06:08;26.10;96.70
40670;DHT22;26355;45.528;9.234;2022-08-23T05:08:34;26.10;96.90
40670;DHT22;26355;45.528;9.234;2022-08-23T05:11:05;26.20;96.90
40670;DHT22;26355;45.528;9.234;2022-08-23T05:13:31;26.20;97.00
40670;DHT22;26355;45.528;9.234;2022-08-23T05:15:58;26.10;97.10
40670;DHT22;26355;45.528;9.234;2022-08-23T05:18:25;26.00;97.30
40670;DHT22;26355;45.528;9.234;2022-08-23T05:20:51;25.90;97.40
40670;DHT22;26355;45.528;9.234;2022-08-23T05:23:17;26.00;97.50
40670;DHT22;26355;45.528;9.234;2022-08-23T05:25:43;26.00;97.50
40670;DHT22;26355;45.528;9.234;2022-08-23T05:28:19;26.10;97.50
40670;DHT22;26355;45.528;9.234;2022-08-23T05:31:01;26.20;97.40
40670;DHT22;26355;45.528;9.234;2022-08-23T05:33:28;26.20;97.30
40670;DHT22;26355;45.528;9.234;2022-08-23T05:35:54;26.30;97.20
40670;DHT22;26355;45.528;9.234;2022-08-23T05:38:21;26.30;97.10
40670;DHT22;26355;45.528;9.234;2022-08-23T05:40:51;26.30;97.00
40670;DHT22;26355;45.528;9.234;2022-08-23T05:43:18;26.40;97.00
40670;DHT22;26355;45.528;9.234;2022-08-23T05:45:46;26.40;97.10
40670;DHT22;26355;45.528;9.234;2022-08-23T05:48:14;26.30;97.50
40670;DHT22;26355;45.528;9.234;2022-08-23T05:50:40;26.30;97.30
40670;DHT22;26355;45.528;9.234;2022-08-23T05:53:07;26.40;97.20
40670;DHT22;26355;45.528;9.234;2022-08-23T05:55:34;26.40;97.00
40670;DHT22;26355;45.528;9.234;2022-08-23T05:58:00;26.40;97.00
40670;DHT22;26355;45.528;9.234;2022-08-23T06:00:29;26.40;97.00
40670;DHT22;26355;45.528;9.234;2022-08-23T06:02:55;26.40;97.00
40670;DHT22;26355;45.528;9.234;2022-08-23T06:05:23;26.40;96.90
40670;DHT22;26355;45.528;9.234;2022-08-23T06:07:52;26.60;96.90
40670;DHT22;26355;45.528;9.234;2022-08-23T06:10:21;26.90;96.60
40670;DHT22;26355;45.528;9.234;2022-08-23T06:12:47;27.30;96.40
40670;DHT22;26355;45.528;9.234;2022-08-23T06:15:15;27.80;95.80
40670;DHT22;26355;45.528;9.234;2022-08-23T06:17:41;28.30;95.20
40670;DHT22;26355;45.528;9.234;2022-08-23T06:20:07;28.80;94.40
40670;DHT22;26355;45.528;9.234;2022-08-23T06:22:33;29.10;93.00
40670;DHT22;26355;45.528;9.234;2022-08-23T06:24:59;29.40;92.10
40670;DHT22;26355;45.528;9.234;2022-08-23T06:27:24;29.60;91.80
40670;DHT22;26355;45.528;9.234;2022-08-23T06:29:50;29.90;91.50
40670;DHT22;26355;45.528;9.234;2022-08-23T06:32:16;30.00;91.10
40670;DHT22;26355;45.528;9.234;2022-08-23T06:34:41;30.00;90.90
40670;DHT22;26355;45.528;9.234;2022-08-23T06:37:13;30.20;90.70
40670;DHT22;26355;45.528;9.234;2022-08-23T06:39:39;30.20;90.40
40670;DHT22;26355;45.528;9.234;2022-08-23T06:42:11;30.30;90.20
40670;DHT22;26355;45.528;9.234;2022-08-23T06:44:38;30.10;89.50
40670;DHT22;26355;45.528;9.234;2022-08-23T06:47:05;30.10;89.70
40670;DHT22;26355;45.528;9.234;2022-08-23T06:49:31;30.20;89.50
40670;DHT22;26355;45.528;9.234;2022-08-23T06:51:58;30.30;89.40
40670;DHT22;26355;45.528;9.234;2022-08-23T06:54:27;30.40;89.40
40670;DHT22;26355;45.528;9.234;2022-08-23T06:56:54;30.30;88.90
40670;DHT22;26355;45.528;9.234;2022-08-23T06:59:20;30.30;89.10
40670;DHT22;26355;45.528;9.234;2022-08-23T07:01:58;30.10;89.20
40670;DHT22;26355;45.528;9.234;2022-08-23T07:04:30;30.10;89.10
40670;DHT22;26355;45.528;9.234;2022-08-23T07:06:56;30.10;89.10
40670;DHT22;26355;45.528;9.234;2022-08-23T07:09:22;29.80;89.60
40670;DHT22;26355;45.528;9.234;2022-08-23T07:11:48;29.80;89.80
40670;DHT22;26355;45.528;9.234;2022-08-23T07:14:16;29.70;90.00
40670;DHT22;26355;45.528;9.234;2022-08-23T07:16:47;29.70;90.10
40670;DHT22;26355;45.528;9.234;2022-08-23T07:19:15;29.90;90.00
40670;DHT22;26355;45.528;9.234;2022-08-23T07:21:42;29.90;90.10
40670;DHT22;26355;45.528;9.234;2022-08-23T07:24:08;29.90;90.00
40670;DHT22;26355;45.528;9.234;2022-08-23T07:26:34;29.70;89.90
40670;DHT22;26355;45.528;9.234;2022-08-23T07:29:03;29.40;90.00
40670;DHT22;26355;45.528;9.234;2022-08-23T07:31:31;29.40;90.10
40670;DHT22;26355;45.528;9.234;2022-08-23T07:33:59;29.40;90.30
40670;DHT22;26355;45.528;9.234;2022-08-23T07:36:28;29.40;90.20
40670;DHT22;26355;45.528;9.234;2022-08-23T07:38:55;29.30;89.60
40670;DHT22;26355;45.528;9.234;2022-08-23T07:41:26;29.30;90.00
40670;DHT22;26355;45.528;9.234;2022-08-23T07:43:54;29.40;89.60
40670;DHT22;26355;45.528;9.234;2022-08-23T07:46:20;29.50;89.30
40670;DHT22;26355;45.528;9.234;2022-08-23T07:48:46;29.50;88.30
40670;DHT22;26355;45.528;9.234;2022-08-23T07:51:13;29.50;88.50
40670;DHT22;26355;45.528;9.234;2022-08-23T07:53:38;29.50;88.80
40670;DHT22;26355;45.528;9.234;2022-08-23T07:56:06;29.50;88.80
40670;DHT22;26355;45.528;9.234;2022-08-23T07:58:32;29.50;87.60
40670;DHT22;26355;45.528;9.234;2022-08-23T08:01:19;29.50;87.10
40670;DHT22;26355;45.528;9.234;2022-08-23T08:03:48;29.50;87.10
40670;DHT22;26355;45.528;9.234;2022-08-23T08:06:21;29.60;88.00
40670;DHT22;26355;45.528;9.234;2022-08-23T08:08:47;29.60;88.10
40670;DHT22;26355;45.528;9.234;2022-08-23T08:11:15;29.70;87.70
40670;DHT22;26355;45.528;9.234;2022-08-23T08:13:44;29.50;87.80
40670;DHT22;26355;45.528;9.234;2022-08-23T08:16:25;29.60;88.30
40670;DHT22;26355;45.528;9.234;2022-08-23T08:18:53;29.30;89.00
40670;DHT22;26355;45.528;9.234;2022-08-23T08:21:19;29.30;88.70
40670;DHT22;26355;45.528;9.234;2022-08-23T08:23:45;29.40;88.50
40670;DHT22;26355;45.528;9.234;2022-08-23T08:26:11;29.30;88.00
40670;DHT22;26355;45.528;9.234;2022-08-23T08:28:38;29.10;88.50
40670;DHT22;26355;45.528;9.234;2022-08-23T08:31:05;29.20;88.60
40670;DHT22;26355;45.528;9.234;2022-08-23T08:33:31;29.30;88.90
40670;DHT22;26355;45.528;9.234;2022-08-23T08:35:58;29.30;89.30
40670;DHT22;26355;45.528;9.234;2022-08-23T08:38:24;29.40;89.40
40670;DHT22;26355;45.528;9.234;2022-08-23T08:41:17;29.40;89.30
40670;DHT22;26355;45.528;9.234;2022-08-23T08:46:49;29.60;87.10
40670;DHT22;26355;45.528;9.234;2022-08-23T08:49:45;29.50;86.70
40670;DHT22;26355;45.528;9.234;2022-08-23T08:52:34;29.60;85.60
40670;DHT22;26355;45.528;9.234;2022-08-23T08:55:09;29.50;85.00
40670;DHT22;26355;45.528;9.234;2022-08-23T08:57:39;29.50;84.40
40670;DHT22;26355;45.528;9.234;2022-08-23T09:02:33;29.70;85.60
40670;DHT22;26355;45.528;9.234;2022-08-23T09:05:00;29.60;85.50
40670;DHT22;26355;45.528;9.234;2022-08-23T09:10:24;29.70;86.70
40670;DHT22;26355;45.528;9.234;2022-08-23T09:18:10;30.00;86.90
40670;DHT22;26355;45.528;9.234;2022-08-23T09:20:37;30.10;86.20
40670;DHT22;26355;45.528;9.234;2022-08-23T09:23:08;30.20;85.90
40670;DHT22;26355;45.528;9.234;2022-08-23T09:25:34;30.00;83.90
40670;DHT22;26355;45.528;9.234;2022-08-23T09:28:00;30.10;84.50
40670;DHT22;26355;45.528;9.234;2022-08-23T09:30:51;30.10;83.30
40670;DHT22;26355;45.528;9.234;2022-08-23T09:33:22;30.20;81.90
40670;DHT22;26355;45.528;9.234;2022-08-23T09:36:26;30.30;83.40
40670;DHT22;26355;45.528;9.234;2022-08-23T09:38:56;30.20;84.00
40670;DHT22;26355;45.528;9.234;2022-08-23T09:41:25;30.30;84.30
40670;DHT22;26355;45.528;9.234;2022-08-23T09:43:52;30.40;84.50
40670;DHT22;26355;45.528;9.234;2022-08-23T09:46:31;30.30;84.90
40670;DHT22;26355;45.528;9.234;2022-08-23T09:49:24;30.50;85.10
40670;DHT22;26355;45.528;9.234;2022-08-23T09:51:50;30.30;82.30
40670;DHT22;26355;45.528;9.234;2022-08-23T09:54:30;30.40;82.90
40670;DHT22;26355;45.528;9.234;2022-08-23T09:57:05;30.10;80.50
40670;DHT22;26355;45.528;9.234;2022-08-23T09:59:47;30.10;81.20
40670;DHT22;26355;45.528;9.234;2022-08-23T10:02:25;30.40;80.80
40670;DHT22;26355;45.528;9.234;2022-08-23T10:07:43;30.70;77.80
40670;DHT22;26355;45.528;9.234;2022-08-23T10:12:42;31.00;78.70
40670;DHT22;26355;45.528;9.234;2022-08-23T10:15:08;31.10;78.70
40670;DHT22;26355;45.528;9.234;2022-08-23T10:17:53;31.00;78.70
40670;DHT22;26355;45.528;9.234;2022-08-23T10:22:57;30.90;77.30
40670;DHT22;26355;45.528;9.234;2022-08-23T10:25:34;31.00;78.70
40670;DHT22;26355;45.528;9.234;2022-08-23T10:28:33;31.10;80.20
40670;DHT22;26355;45.528;9.234;2022-08-23T10:31:37;31.20;79.90
40670;DHT22;26355;45.528;9.234;2022-08-23T10:37:21;31.30;77.20
40670;DHT22;26355;45.528;9.234;2022-08-23T10:40:08;31.40;76.60
40670;DHT22;26355;45.528;9.234;2022-08-23T10:42:46;31.50;77.60
40670;DHT22;26355;45.528;9.234;2022-08-23T10:45:34;31.60;76.10
40670;DHT22;26355;45.528;9.234;2022-08-23T10:50:46;31.60;74.60
40670;DHT22;26355;45.528;9.234;2022-08-23T10:53:16;31.60;75.30
40670;DHT22;26355;45.528;9.234;2022-08-23T10:56:03;31.60;75.70
40670;DHT22;26355;45.528;9.234;2022-08-23T11:01:07;31.80;75.20
40670;DHT22;26355;45.528;9.234;2022-08-23T11:03:42;31.80;74.40
40670;DHT22;26355;45.528;9.234;2022-08-23T11:09:08;31.70;76.00
40670;DHT22;26355;45.528;9.234;2022-08-23T11:12:28;31.90;76.80
40670;DHT22;26355;45.528;9.234;2022-08-23T11:15:02;31.90;77.30
40670;DHT22;26355;45.528;9.234;2022-08-23T11:17:56;32.10;78.60
40670;DHT22;26355;45.528;9.234;2022-08-23T11:26:06;32.30;76.90
40670;DHT22;26355;45.528;9.234;2022-08-23T11:28:52;32.30;77.30
40670;DHT22;26355;45.528;9.234;2022-08-23T11:31:39;32.20;76.80
40670;DHT22;26355;45.528;9.234;2022-08-23T11:34:24;32.20;76.90
40670;DHT22;26355;45.528;9.234;2022-08-23T11:44:54;31.80;78.20
40670;DHT22;26355;45.528;9.234;2022-08-23T11:47:28;31.80;78.00
40670;DHT22;26355;45.528;9.234;2022-08-23T11:50:27;31.90;78.60
40670;DHT22;26355;45.528;9.234;2022-08-23T11:56:09;32.00;77.90
40670;DHT22;26355;45.528;9.234;2022-08-23T12:01:10;32.10;78.50
40670;DHT22;26355;45.528;9.234;2022-08-23T12:11:22;32.20;78.70
40670;DHT22;26355;45.528;9.234;2022-08-23T12:13:57;32.00;78.60
40670;DHT22;26355;45.528;9.234;2022-08-23T12:16:28;31.90;79.10
40670;DHT22;26355;45.528;9.234;2022-08-23T12:18:56;32.00;79.40
40670;DHT22;26355;45.528;9.234;2022-08-23T12:24:24;32.10;79.90
40670;DHT22;26355;45.528;9.234;2022-08-23T12:30:10;32.20;79.50
40670;DHT22;26355;45.528;9.234;2022-08-23T12:38:37;32.40;79.50
40670;DHT22;26355;45.528;9.234;2022-08-23T12:41:42;32.40;79.60
40670;DHT22;26355;45.528;9.234;2022-08-23T12:44:17;32.40;79.30
40670;DHT22;26355;45.528;9.234;2022-08-23T12:46:46;32.00;79.80
40670;DHT22;26355;45.528;9.234;2022-08-23T12:49:28;32.00;79.80
40670;DHT22;26355;45.528;9.234;2022-08-23T12:51:57;31.90;79.70
40670;DHT22;26355;45.528;9.234;2022-08-23T12:54:36;32.10;79.90
40670;DHT22;26355;45.528;9.234;2022-08-23T12:57:04;32.30;79.90
40670;DHT22;26355;45.528;9.234;2022-08-23T12:59:44;32.40;79.40
40670;DHT22;26355;45.528;9.234;2022-08-23T13:02:25;32.40;78.80
40670;DHT22;26355;45.528;9.234;2022-08-23T13:04:51;32.40;78.80
40670;DHT22;26355;45.528;9.234;2022-08-23T13:07:20;32.20;79.10
40670;DHT22;26355;45.528;9.234;2022-08-23T13:09:48;32.30;78.60
40670;DHT22;26355;45.528;9.234;2022-08-23T13:12:16;32.30;79.40
40670;DHT22;26355;45.528;9.234;2022-08-23T13:14:45;32.40;79.00
40670;DHT22;26355;45.528;9.234;2022-08-23T13:19:37;32.40;79.10
40670;DHT22;26355;45.528;9.234;2022-08-23T13:27:29;32.40;78.70
40670;DHT22;26355;45.528;9.234;2022-08-23T13:32:39;32.30;78.30
40670;DHT22;26355;45.528;9.234;2022-08-23T13:35:39;32.30;78.20
40670;DHT22;26355;45.528;9.234;2022-08-23T13:38:52;32.40;77.90
40670;DHT22;26355;45.528;9.234;2022-08-23T13:41:29;32.50;78.60
40670;DHT22;26355;45.528;9.234;2022-08-23T13:43:56;32.50;77.20
40670;DHT22;26355;45.528;9.234;2022-08-23T13:46:25;32.60;77.60
40670;DHT22;26355;45.528;9.234;2022-08-23T13:49:09;32.50;77.10
40670;DHT22;26355;45.528;9.234;2022-08-23T13:54:27;32.50;75.70
40670;DHT22;26355;45.528;9.234;2022-08-23T13:57:01;32.50;75.60
40670;DHT22;26355;45.528;9.234;2022-08-23T13:59:30;32.50;74.70
40670;DHT22;26355;45.528;9.234;2022-08-23T14:01:57;32.60;75.20
40670;DHT22;26355;45.528;9.234;2022-08-23T14:04:23;32.70;75.70
40670;DHT22;26355;45.528;9.234;2022-08-23T14:06:49;32.70;75.90
40670;DHT22;26355;45.528;9.234;2022-08-23T14:09:15;32.50;76.50
40670;DHT22;26355;45.528;9.234;2022-08-23T14:11:41;32.60;77.00
40670;DHT22;26355;45.528;9.234;2022-08-23T14:14:08;32.60;77.50
40670;DHT22;26355;45.528;9.234;2022-08-23T14:16:35;32.70;78.00
40670;DHT22;26355;45.528;9.234;2022-08-23T14:19:07;32.70;77.70
40670;DHT22;26355;45.528;9.234;2022-08-23T14:21:33;32.60;77.30
40670;DHT22;26355;45.528;9.234;2022-08-23T14:23:59;32.60;77.60
40670;DHT22;26355;45.528;9.234;2022-08-23T14:26:25;32.50;77.80
40670;DHT22;26355;45.528;9.234;2022-08-23T14:28:51;32.50;77.60
40670;DHT22;26355;45.528;9.234;2022-08-23T14:31:17;32.50;77.20
40670;DHT22;26355;45.528;9.234;2022-08-23T14:33:44;32.50;75.80
40670;DHT22;26355;45.528;9.234;2022-08-23T14:36:10;32.60;75.50
40670;DHT22;26355;45.528;9.234;2022-08-23T14:38:37;32.70;76.30
40670;DHT22;26355;45.528;9.234;2022-08-23T14:41:07;32.70;77.10
40670;DHT22;26355;45.528;9.234;2022-08-23T14:43:33;32.70;77.30
40670;DHT22;26355;45.528;9.234;2022-08-23T14:46:00;32.60;77.20
40670;DHT22;26355;45.528;9.234;2022-08-23T14:48:26;32.40;78.00
40670;DHT22;26355;45.528;9.234;2022-08-23T14:50:53;32.40;77.80
40670;DHT22;26355;45.528;9.234;2022-08-23T14:53:23;32.50;77.90
40670;DHT22;26355;45.528;9.234;2022-08-23T14:55:49;32.40;76.90
40670;DHT22;26355;45.528;9.234;2022-08-23T14:58:21;32.50;77.00
40670;DHT22;26355;45.528;9.234;2022-08-23T15:00:48;32.50;77.60
40670;DHT22;26355;45.528;9.234;2022-08-23T15:03:18;32.50;77.60
40670;DHT22;26355;45.528;9.234;2022-08-23T15:05:45;32.50;78.10
40670;DHT22;26355;45.528;9.234;2022-08-23T15:08:11;32.40;77.50
40670;DHT22;26355;45.528;9.234;2022-08-23T15:10:36;32.40;77.70
40670;DHT22;26355;45.528;9.234;2022-08-23T15:13:02;32.40;77.90
40670;DHT22;26355;45.528;9.234;2022-08-23T15:15:28;32.40;77.80
40670;DHT22;26355;45.528;9.234;2022-08-23T15:17:57;32.40;77.90
40670;DHT22;26355;45.528;9.234;2022-08-23T15:20:26;32.30;77.60
40670;DHT22;26355;45.528;9.234;2022-08-23T15:22:52;32.20;77.40
40670;DHT22;26355;45.528;9.234;2022-08-23T15:25:18;32.20;77.50
40670;DHT22;26355;45.528;9.234;2022-08-23T15:27:45;32.30;77.60
40670;DHT22;26355;45.528;9.234;2022-08-23T15:30:13;32.20;77.50
40670;DHT22;26355;45.528;9.234;2022-08-23T15:32:39;32.20;77.00
40670;DHT22;26355;45.528;9.234;2022-08-23T15:35:06;32.20;78.00
40670;DHT22;26355;45.528;9.234;2022-08-23T15:37:33;32.20;77.40
40670;DHT22;26355;45.528;9.234;2022-08-23T15:39:59;32.30;77.40
40670;DHT22;26355;45.528;9.234;2022-08-23T15:42:25;32.20;77.30
40670;DHT22;26355;45.528;9.234;2022-08-23T15:44:50;32.20;77.10
40670;DHT22;26355;45.528;9.234;2022-08-23T15:47:25;32.30;77.00
40670;DHT22;26355;45.528;9.234;2022-08-23T15:49:51;32.20;76.50
40670;DHT22;26355;45.528;9.234;2022-08-23T15:52:18;32.30;76.60
40670;DHT22;26355;45.528;9.234;2022-08-23T15:54:45;32.30;76.50
40670;DHT22;26355;45.528;9.234;2022-08-23T15:57:19;32.30;76.50
40670;DHT22;26355;45.528;9.234;2022-08-23T15:59:46;32.20;76.20
40670;DHT22;26355;45.528;9.234;2022-08-23T16:02:12;32.20;76.30
40670;DHT22;26355;45.528;9.234;2022-08-23T16:04:38;32.10;76.50
40670;DHT22;26355;45.528;9.234;2022-08-23T16:07:09;32.10;76.20
40670;DHT22;26355;45.528;9.234;2022-08-23T16:09:37;32.00;75.90
40670;DHT22;26355;45.528;9.234;2022-08-23T16:12:03;32.10;75.60
40670;DHT22;26355;45.528;9.234;2022-08-23T16:14:29;32.00;75.40
40670;DHT22;26355;45.528;9.234;2022-08-23T16:16:57;32.00;75.30
40670;DHT22;26355;45.528;9.234;2022-08-23T16:19:23;32.10;75.50
40670;DHT22;26355;45.528;9.234;2022-08-23T16:21:50;32.00;75.30
40670;DHT22;26355;45.528;9.234;2022-08-23T16:24:21;32.00;75.10
40670;DHT22;26355;45.528;9.234;2022-08-23T16:26:48;32.00;74.30
40670;DHT22;26355;45.528;9.234;2022-08-23T16:29:16;32.00;74.10
40670;DHT22;26355;45.528;9.234;2022-08-23T16:31:43;32.10;74.10
40670;DHT22;26355;45.528;9.234;2022-08-23T16:34:13;32.10;74.30
40670;DHT22;26355;45.528;9.234;2022-08-23T16:36:43;32.00;74.10
40670;DHT22;26355;45.528;9.234;2022-08-23T16:39:10;32.00;73.70
40670;DHT22;26355;45.528;9.234;2022-08-23T16:41:36;32.00;73.50
40670;DHT22;26355;45.528;9.234;2022-08-23T16:44:03;32.00;73.90
40670;DHT22;26355;45.528;9.234;2022-08-23T16:46:28;32.00;74.10
40670;DHT22;26355;45.528;9.234;2022-08-23T16:48:54;32.00;74.10
40670;DHT22;26355;45.528;9.234;2022-08-23T16:51:20;32.00;74.20
40670;DHT22;26355;45.528;9.234;2022-08-23T16:53:46;32.00;74.30
40670;DHT22;26355;45.528;9.234;2022-08-23T16:56:14;32.00;74.30
40670;DHT22;26355;45.528;9.234;2022-08-23T16:58:40;32.00;73.90
40670;DHT22;26355;45.528;9.234;2022-08-23T17:01:11;31.90;73.80
40670;DHT22;26355;45.528;9.234;2022-08-23T17:03:39;31.80;73.30
40670;DHT22;26355;45.528;9.234;2022-08-23T17:06:05;31.80;73.40
40670;DHT22;26355;45.528;9.234;2022-08-23T17:08:30;31.80;73.20
40670;DHT22;26355;45.528;9.234;2022-08-23T17:10:56;31.80;73.00
40670;DHT22;26355;45.528;9.234;2022-08-23T17:13:22;31.80;72.90
40670;DHT22;26355;45.528;9.234;2022-08-23T17:15:48;31.70;72.70
40670;DHT22;26355;45.528;9.234;2022-08-23T17:18:14;31.70;72.00